createdAt,value
2023-05-13T00:01:50.132Z,2.70
2023-05-13T00:04:16.868Z,2.37
2023-05-13T00:06:43.363Z,2.60
2023-05-13T00:09:10.130Z,2.27
2023-05-13T00:11:36.628Z,2.43
2023-05-13T00:14:03.178Z,2.60
2023-05-13T00:16:29.864Z,2.63
2023-05-13T00:18:56.533Z,2.37
2023-05-13T00:21:23.631Z,2.90
2023-05-13T00:23:50.172Z,3.13
2023-05-13T00:26:16.606Z,2.80
2023-05-13T00:28:43.088Z,3.00
2023-05-13T00:31:10.313Z,2.63
2023-05-13T00:33:37.642Z,2.90
2023-05-13T00:36:04.320Z,2.73
2023-05-13T00:38:30.806Z,2.37
2023-05-13T00:40:57.274Z,2.40
2023-05-13T00:43:23.696Z,2.57
2023-05-13T00:45:50.584Z,2.73
2023-05-13T00:48:17.515Z,2.80
2023-05-13T00:50:44.868Z,2.50
2023-05-13T00:53:12.678Z,2.90
2023-05-13T00:55:46.039Z,2.60
2023-05-13T00:58:13.075Z,4.23
2023-05-13T01:01:06.220Z,3.70
2023-05-13T01:03:38.886Z,3.40
2023-05-13T01:06:05.500Z,3.20
2023-05-13T01:08:31.992Z,3.57
2023-05-13T01:11:03.969Z,3.80
2023-05-13T01:13:33.426Z,3.40
2023-05-13T01:16:06.630Z,3.23
2023-05-13T01:18:43.586Z,3.90
2023-05-13T01:21:11.684Z,3.87
2023-05-13T01:23:38.221Z,3.67
2023-05-13T01:26:04.704Z,3.00
2023-05-13T01:28:33.376Z,2.80
2023-05-13T01:30:59.912Z,2.97
2023-05-13T01:33:26.533Z,2.53
2023-05-13T01:35:53.152Z,2.57
2023-05-13T01:38:20.640Z,2.37
2023-05-13T01:40:47.341Z,2.47
2023-05-13T01:43:13.770Z,2.33
2023-05-13T01:45:41.233Z,3.10
2023-05-13T01:48:07.753Z,2.40
2023-05-13T01:50:34.266Z,2.60
2023-05-13T01:53:00.705Z,2.50
2023-05-13T01:55:27.265Z,2.40
2023-05-13T01:57:53.840Z,2.30
2023-05-13T02:00:20.644Z,2.20
2023-05-13T02:02:47.437Z,2.30
2023-05-13T02:05:14.103Z,2.10
2023-05-13T02:07:40.630Z,2.20
2023-05-13T02:10:07.348Z,1.87
2023-05-13T02:12:33.876Z,2.53
2023-05-13T02:15:00.366Z,2.10
2023-05-13T02:17:27.100Z,2.50
2023-05-13T02:19:53.674Z,2.90
2023-05-13T02:22:20.156Z,2.90
2023-05-13T02:24:46.584Z,2.73
2023-05-13T02:27:16.207Z,2.50
2023-05-13T02:29:42.681Z,2.47
2023-05-13T02:32:09.187Z,2.53
2023-05-13T02:34:35.800Z,3.13
2023-05-13T02:37:03.414Z,3.00
2023-05-13T02:39:29.913Z,2.77
2023-05-13T02:41:56.513Z,2.20
2023-05-13T02:44:22.929Z,3.13
2023-05-13T02:46:49.404Z,2.60
2023-05-13T02:49:16.010Z,2.17
2023-05-13T02:51:42.430Z,2.17
2023-05-13T02:54:08.923Z,2.30
2023-05-13T02:56:35.375Z,2.27
2023-05-13T02:59:01.834Z,2.40
2023-05-13T03:01:28.306Z,2.30
2023-05-13T03:03:54.985Z,2.70
2023-05-13T03:06:21.406Z,2.50
2023-05-13T03:08:47.892Z,2.37
2023-05-13T03:11:14.479Z,2.50
2023-05-13T03:13:40.988Z,2.70
2023-05-13T03:16:07.505Z,2.00
2023-05-13T03:18:35.064Z,2.17
2023-05-13T03:21:01.985Z,1.80
2023-05-13T03:23:28.452Z,2.50
2023-05-13T03:25:54.942Z,2.10
2023-05-13T03:28:21.464Z,2.23
2023-05-13T03:30:48.005Z,2.73
2023-05-13T03:33:14.545Z,2.03
2023-05-13T03:35:41.136Z,2.53
2023-05-13T03:38:07.649Z,2.00
2023-05-13T03:40:34.451Z,2.20
2023-05-13T03:43:00.890Z,2.43
2023-05-13T03:45:27.359Z,1.90
2023-05-13T03:47:53.882Z,2.03
2023-05-13T03:50:20.752Z,1.90
2023-05-13T03:52:47.410Z,1.90
2023-05-13T03:55:15.183Z,2.33
2023-05-13T03:57:42.567Z,1.97
2023-05-13T04:00:10.066Z,2.20
2023-05-13T04:02:36.743Z,2.10
2023-05-13T04:05:05.773Z,1.83
2023-05-13T04:07:32.293Z,2.77
2023-05-13T04:09:58.803Z,2.40
2023-05-13T04:12:25.308Z,2.73
2023-05-13T04:14:51.765Z,2.40
2023-05-13T04:17:18.295Z,2.77
2023-05-13T04:19:44.778Z,2.70
2023-05-13T04:22:11.273Z,2.50
2023-05-13T04:24:37.716Z,2.47
2023-05-13T04:27:04.287Z,2.63
2023-05-13T04:29:30.774Z,2.53
2023-05-13T04:31:57.331Z,2.70
2023-05-13T04:34:23.829Z,2.17
2023-05-13T04:36:50.257Z,2.40
2023-05-13T04:39:16.714Z,2.20
2023-05-13T04:41:43.482Z,2.22
2023-05-13T04:44:10.031Z,2.53
2023-05-13T04:46:40.324Z,2.43
2023-05-13T04:49:06.809Z,2.07
2023-05-13T04:51:33.739Z,2.00
2023-05-13T04:54:00.464Z,2.13
2023-05-13T04:56:27.201Z,2.70
2023-05-13T04:58:53.647Z,2.33
2023-05-13T05:01:20.401Z,2.30
2023-05-13T05:03:46.957Z,2.30
2023-05-13T05:06:13.443Z,2.30
2023-05-13T05:08:40.165Z,2.10
2023-05-13T05:11:06.688Z,2.60
2023-05-13T05:13:33.127Z,2.20
2023-05-13T05:15:59.582Z,2.20
2023-05-13T05:18:26.079Z,2.37
2023-05-13T05:20:52.589Z,2.70
2023-05-13T05:23:18.997Z,2.70
2023-05-13T05:25:45.560Z,2.50
2023-05-13T05:28:14.547Z,2.10
2023-05-13T05:30:43.697Z,1.87
2023-05-13T05:33:10.246Z,1.90
2023-05-13T05:35:38.339Z,1.70
2023-05-13T05:38:05.199Z,1.70
2023-05-13T05:40:32.408Z,1.80
2023-05-13T05:42:58.899Z,1.60
2023-05-13T05:45:25.435Z,1.80
2023-05-13T05:47:54.203Z,1.50
2023-05-13T05:50:21.346Z,1.77
2023-05-13T05:52:48.005Z,1.50
2023-05-13T05:55:14.494Z,1.60
2023-05-13T05:57:40.982Z,1.47
2023-05-13T06:00:08.050Z,2.00
2023-05-13T06:02:34.627Z,1.40
2023-05-13T06:05:01.126Z,1.60
2023-05-13T06:07:27.574Z,1.50
2023-05-13T06:09:54.776Z,1.90
2023-05-13T06:12:22.735Z,1.47
2023-05-13T06:14:49.417Z,1.70
2023-05-13T06:17:15.979Z,1.47
2023-05-13T06:19:45.365Z,1.70
2023-05-13T06:22:11.842Z,1.57
2023-05-13T06:24:39.156Z,1.47
2023-05-13T06:27:05.905Z,1.77
2023-05-13T06:29:35.638Z,1.50
2023-05-13T06:32:02.161Z,1.83
2023-05-13T06:34:28.656Z,2.07
2023-05-13T06:36:55.120Z,1.33
2023-05-13T06:39:21.583Z,1.30
2023-05-13T06:41:48.052Z,1.40
2023-05-13T06:44:14.566Z,1.30
2023-05-13T06:46:41.069Z,1.73
2023-05-13T06:49:07.517Z,1.47
2023-05-13T06:51:34.932Z,1.37
2023-05-13T06:54:01.422Z,1.30
2023-05-13T06:56:28.568Z,1.40
2023-05-13T06:58:55.314Z,1.67
2023-05-13T07:01:21.983Z,1.40
2023-05-13T07:03:48.616Z,1.90
2023-05-13T07:06:15.077Z,1.67
2023-05-13T07:08:41.617Z,1.47
2023-05-13T07:11:08.116Z,1.37
2023-05-13T07:13:35.063Z,1.37
2023-05-13T07:16:02.364Z,1.40
2023-05-13T07:18:29.358Z,1.30
2023-05-13T07:20:58.989Z,1.40
2023-05-13T07:23:25.434Z,1.63
2023-05-13T07:25:52.190Z,1.40
2023-05-13T07:28:21.809Z,2.00
2023-05-13T07:30:48.378Z,1.80
2023-05-13T07:33:14.939Z,1.67
2023-05-13T07:35:41.499Z,1.57
2023-05-13T07:38:09.033Z,2.10
2023-05-13T07:40:35.618Z,1.57
2023-05-13T07:43:02.161Z,1.60
2023-05-13T07:45:29.509Z,1.23
2023-05-13T07:47:56.607Z,1.60
2023-05-13T07:50:23.148Z,1.50
2023-05-13T07:52:51.868Z,1.47
2023-05-13T07:55:18.579Z,1.40
2023-05-13T07:57:45.069Z,1.50
2023-05-13T08:00:11.723Z,1.40
2023-05-13T08:02:38.916Z,1.17
2023-05-13T08:05:06.251Z,1.50
2023-05-13T08:07:32.824Z,1.53
2023-05-13T08:09:59.324Z,1.50
2023-05-13T08:12:25.838Z,1.53
2023-05-13T08:14:52.326Z,1.70
2023-05-13T08:17:19.619Z,1.50
2023-05-13T08:19:46.298Z,1.53
2023-05-13T08:22:12.729Z,1.50
2023-05-13T08:24:41.058Z,1.20
2023-05-13T08:27:07.530Z,1.50
2023-05-13T08:29:33.961Z,1.43
2023-05-13T08:32:00.435Z,1.27
2023-05-13T08:34:27.027Z,1.47
2023-05-13T08:36:53.456Z,1.20
2023-05-13T08:39:19.991Z,1.60
2023-05-13T08:41:46.508Z,1.30
2023-05-13T08:44:16.114Z,1.30
2023-05-13T08:46:49.283Z,1.30
2023-05-13T08:49:15.767Z,1.20
2023-05-13T08:51:44.309Z,1.17
2023-05-13T08:54:11.517Z,1.10
2023-05-13T08:56:37.944Z,1.37
2023-05-13T08:59:04.400Z,1.20
2023-05-13T09:01:31.166Z,1.13
2023-05-13T09:04:06.228Z,1.20
2023-05-13T09:06:32.751Z,1.23
2023-05-13T09:08:59.246Z,1.17
2023-05-13T09:11:26.419Z,1.23
2023-05-13T09:13:59.964Z,1.23
2023-05-13T09:16:27.941Z,1.20
2023-05-13T09:18:58.731Z,1.27
2023-05-13T09:21:29.874Z,1.10
2023-05-13T09:24:07.874Z,1.57
2023-05-13T09:26:35.674Z,1.33
2023-05-13T09:29:15.614Z,1.30
2023-05-13T09:31:42.705Z,1.10
2023-05-13T09:34:09.210Z,1.43
2023-05-13T09:36:35.667Z,1.10
2023-05-13T09:39:02.932Z,1.10
2023-05-13T09:41:30.678Z,1.20
2023-05-13T09:44:02.582Z,1.48
2023-05-13T09:46:30.877Z,1.20
2023-05-13T09:48:58.912Z,1.10
2023-05-13T09:51:30.910Z,1.40
2023-05-13T09:54:06.347Z,1.20
2023-05-13T09:56:34.935Z,1.40
2023-05-13T09:59:02.113Z,1.40
2023-05-13T10:01:29.425Z,1.70
2023-05-13T10:03:57.250Z,1.50
2023-05-13T10:06:26.787Z,1.50
2023-05-13T10:08:53.974Z,1.30
2023-05-13T10:11:21.521Z,1.27
2023-05-13T10:13:50.050Z,1.40
2023-05-13T10:16:19.102Z,1.30
2023-05-13T10:18:46.545Z,1.17
2023-05-13T10:21:13.516Z,1.10
2023-05-13T10:23:40.307Z,1.30
2023-05-13T10:26:06.816Z,0.90
2023-05-13T10:28:34.281Z,1.00
2023-05-13T10:31:00.788Z,1.20
2023-05-13T10:33:27.570Z,1.10
2023-05-13T10:36:01.966Z,1.17
2023-05-13T10:38:38.272Z,1.30
2023-05-13T10:41:09.668Z,1.20
2023-05-13T10:43:37.418Z,1.63
2023-05-13T10:46:04.216Z,1.23
2023-05-13T10:48:40.826Z,1.17
2023-05-13T10:51:08.253Z,1.20
2023-05-13T10:53:44.216Z,1.10
2023-05-13T10:56:10.696Z,1.10
2023-05-13T10:58:38.402Z,1.38
2023-05-13T11:01:19.532Z,1.28
2023-05-13T11:03:55.693Z,1.30
2023-05-13T11:06:23.967Z,1.40
2023-05-13T11:08:53.072Z,1.23
2023-05-13T11:11:22.420Z,1.23
2023-05-13T11:13:55.028Z,1.30
2023-05-13T11:16:23.218Z,2.10
2023-05-13T11:18:51.519Z,1.10
2023-05-13T11:21:18.122Z,1.30
2023-05-13T11:23:51.451Z,1.97
2023-05-13T11:26:19.011Z,1.50
2023-05-13T11:28:54.822Z,1.40
2023-05-13T11:31:21.743Z,1.33
2023-05-13T11:34:07.214Z,1.50
2023-05-13T11:36:34.836Z,1.38
2023-05-13T11:39:11.911Z,1.20
2023-05-13T11:41:41.696Z,1.58
2023-05-13T11:44:08.392Z,1.57
2023-05-13T11:46:35.110Z,1.73
2023-05-13T11:49:01.640Z,1.40
2023-05-13T11:51:28.801Z,1.27
2023-05-13T11:54:02.672Z,1.60
2023-05-13T11:56:29.574Z,1.40
2023-05-13T11:58:56.445Z,1.60
2023-05-13T12:01:23.051Z,1.60
2023-05-13T12:03:49.499Z,1.40
2023-05-13T12:06:16.057Z,1.35
2023-05-13T12:08:46.247Z,1.45
2023-05-13T12:11:13.369Z,1.40
2023-05-13T12:13:41.171Z,1.20
2023-05-13T12:16:08.143Z,1.50
2023-05-13T12:18:34.721Z,1.70
2023-05-13T12:21:13.157Z,1.90
2023-05-13T12:23:42.146Z,1.35
2023-05-13T12:26:08.575Z,1.40
2023-05-13T12:28:35.015Z,1.20
2023-05-13T12:31:02.701Z,1.30
2023-05-13T12:33:30.072Z,1.30
2023-05-13T12:36:15.301Z,1.25
2023-05-13T12:39:20.025Z,1.38
2023-05-13T12:41:50.831Z,1.25
2023-05-13T12:44:17.694Z,1.42
2023-05-13T12:46:51.114Z,1.55
2023-05-13T12:49:17.633Z,1.20
2023-05-13T12:51:44.108Z,1.27
2023-05-13T12:54:12.003Z,1.00
2023-05-13T12:56:40.547Z,1.67
2023-05-13T12:59:07.974Z,1.38
2023-05-13T13:01:34.983Z,1.23
2023-05-13T13:04:01.840Z,1.27
2023-05-13T13:06:28.400Z,1.23
2023-05-13T13:08:54.893Z,1.58
2023-05-13T13:11:21.607Z,1.30
2023-05-13T13:13:49.565Z,1.10
2023-05-13T13:16:16.117Z,1.42
2023-05-13T13:18:42.735Z,1.48
2023-05-13T13:21:09.881Z,1.60
2023-05-13T13:23:36.372Z,1.30
2023-05-13T13:26:03.116Z,1.30
2023-05-13T13:28:30.064Z,1.52
2023-05-13T13:30:56.603Z,1.52
2023-05-13T13:33:23.168Z,2.85
2023-05-13T13:35:49.777Z,1.75
2023-05-13T13:38:16.297Z,1.40
2023-05-13T13:40:42.823Z,1.33
2023-05-13T13:43:09.345Z,1.42
2023-05-13T13:45:36.558Z,1.27
2023-05-13T13:48:03.345Z,1.52
2023-05-13T13:50:29.942Z,1.40
2023-05-13T13:52:56.592Z,1.70
2023-05-13T13:55:23.555Z,1.73
2023-05-13T13:57:50.823Z,1.30
2023-05-13T14:00:17.526Z,1.55
2023-05-13T14:02:44.247Z,1.50
2023-05-13T14:05:11.420Z,1.42
2023-05-13T14:07:38.026Z,1.55
2023-05-13T14:10:05.098Z,1.90
2023-05-13T14:12:31.790Z,1.23
2023-05-13T14:14:58.600Z,1.77
2023-05-13T14:17:25.141Z,1.70
2023-05-13T14:19:51.889Z,1.17
2023-05-13T14:22:18.399Z,1.40
2023-05-13T14:24:44.880Z,1.40
2023-05-13T14:27:11.329Z,1.40
2023-05-13T14:29:37.794Z,1.42
2023-05-13T14:32:04.415Z,1.45
2023-05-13T14:34:30.885Z,1.33
2023-05-13T14:36:57.322Z,1.50
2023-05-13T14:39:24.108Z,1.20
2023-05-13T14:41:50.605Z,1.30
2023-05-13T14:44:17.072Z,1.38
2023-05-13T14:46:43.575Z,1.50
2023-05-13T14:49:10.121Z,1.60
2023-05-13T14:51:36.626Z,1.60
2023-05-13T14:54:03.198Z,1.40
2023-05-13T14:56:29.708Z,1.10
2023-05-13T14:58:56.312Z,1.27
2023-05-13T15:01:22.832Z,1.27
2023-05-13T15:03:49.328Z,1.58
2023-05-13T15:06:15.815Z,1.48
2023-05-13T15:08:42.252Z,1.73
2023-05-13T15:11:08.690Z,1.45
2023-05-13T15:13:36.911Z,1.55
2023-05-13T15:16:03.605Z,1.50
2023-05-13T15:18:30.427Z,1.50
2023-05-13T15:20:56.967Z,1.50
2023-05-13T15:23:23.493Z,1.77
2023-05-13T15:25:50.620Z,1.30
2023-05-13T15:28:17.094Z,1.80
2023-05-13T15:30:43.580Z,1.25
2023-05-13T15:33:10.193Z,1.48
2023-05-13T15:35:36.704Z,1.50
2023-05-13T15:38:03.584Z,1.70
2023-05-13T15:40:30.035Z,1.40
2023-05-13T15:42:56.494Z,1.95
2023-05-13T15:45:22.982Z,1.65
2023-05-13T15:47:49.563Z,1.80
2023-05-13T15:50:16.796Z,1.60
2023-05-13T15:52:43.249Z,1.27
2023-05-13T15:55:09.772Z,1.20
2023-05-13T15:57:36.278Z,1.30
2023-05-13T16:00:02.947Z,1.50
2023-05-13T16:02:36.558Z,1.38
2023-05-13T16:05:03.438Z,1.55
2023-05-13T16:07:29.887Z,2.00
2023-05-13T16:09:56.358Z,1.70
2023-05-13T16:12:22.833Z,1.90
2023-05-13T16:14:49.289Z,1.40
2023-05-13T16:17:16.200Z,1.70
2023-05-13T16:19:42.668Z,2.30
2023-05-13T16:22:25.605Z,2.00
2023-05-13T16:24:52.660Z,1.67
2023-05-13T16:27:20.529Z,1.37
2023-05-13T16:29:47.184Z,1.47
2023-05-13T16:32:13.664Z,1.40
2023-05-13T16:34:40.145Z,3.00
2023-05-13T16:37:06.624Z,1.50
2023-05-13T16:39:33.087Z,1.73
2023-05-13T16:41:59.516Z,1.70
2023-05-13T16:44:26.064Z,1.50
2023-05-13T16:46:52.557Z,1.50
2023-05-13T16:49:19.120Z,1.57
2023-05-13T16:51:45.662Z,2.03
2023-05-13T16:54:12.098Z,1.83
2023-05-13T16:56:38.602Z,1.60
2023-05-13T16:59:05.080Z,1.50
2023-05-13T17:01:31.594Z,1.77
2023-05-13T17:03:58.124Z,1.50
2023-05-13T17:06:24.590Z,1.97
2023-05-13T17:08:51.015Z,2.10
2023-05-13T17:11:18.034Z,1.90
2023-05-13T17:13:44.580Z,1.80
2023-05-13T17:16:11.474Z,2.33
2023-05-13T17:18:38.010Z,2.10
2023-05-13T17:21:04.528Z,2.97
2023-05-13T17:23:31.056Z,2.10
2023-05-13T17:25:57.525Z,2.40
2023-05-13T17:28:24.032Z,2.13
2023-05-13T17:30:50.598Z,2.20
2023-05-13T17:33:17.101Z,2.37
2023-05-13T17:35:43.757Z,2.27
2023-05-13T17:38:10.773Z,3.10
2023-05-13T17:40:37.242Z,2.30
2023-05-13T17:43:04.415Z,2.63
2023-05-13T17:45:30.983Z,2.80
2023-05-13T17:47:57.528Z,3.73
2023-05-13T17:50:24.346Z,2.40
2023-05-13T17:52:53.737Z,3.33
2023-05-13T17:55:20.155Z,3.40
2023-05-13T17:57:46.593Z,3.47
2023-05-13T18:00:13.490Z,2.83
2023-05-13T18:02:42.932Z,3.13
2023-05-13T18:05:09.896Z,2.97
2023-05-13T18:07:36.360Z,2.77
2023-05-13T18:10:02.947Z,2.83
2023-05-13T18:12:29.438Z,2.47
2023-05-13T18:14:55.959Z,3.33
2023-05-13T18:17:22.505Z,3.27
2023-05-13T18:19:49.089Z,3.27
2023-05-13T18:22:15.622Z,3.63
2023-05-13T18:24:42.101Z,3.93
2023-05-13T18:27:08.658Z,3.37
2023-05-13T18:29:35.189Z,3.30
2023-05-13T18:32:02.040Z,3.60
2023-05-13T18:34:28.599Z,3.27
2023-05-13T18:36:55.099Z,4.10
2023-05-13T18:39:21.942Z,3.57
2023-05-13T18:41:48.457Z,3.73
2023-05-13T18:44:15.292Z,3.07
2023-05-13T18:46:42.004Z,3.00
2023-05-13T18:49:08.489Z,3.40
2023-05-13T18:51:35.029Z,4.00
2023-05-13T18:54:01.488Z,5.67
2023-05-13T18:56:28.224Z,6.97
2023-05-13T18:58:54.700Z,5.87
2023-05-13T19:01:21.366Z,6.03
2023-05-13T19:03:48.076Z,6.07
2023-05-13T19:06:15.735Z,5.30
2023-05-13T19:08:42.182Z,3.80
2023-05-13T19:11:08.826Z,4.57
2023-05-13T19:13:46.219Z,4.17
2023-05-13T19:16:13.936Z,5.90
2023-05-13T19:18:40.511Z,3.83
2023-05-13T19:21:06.997Z,4.00
2023-05-13T19:23:33.689Z,3.60
2023-05-13T19:26:00.337Z,4.07
2023-05-13T19:28:28.074Z,2.83
2023-05-13T19:30:54.597Z,3.13
2023-05-13T19:33:21.108Z,2.60
2023-05-13T19:35:47.771Z,1.93
2023-05-13T19:38:14.537Z,2.50
2023-05-13T19:40:40.944Z,2.73
2023-05-13T19:43:07.524Z,2.93
2023-05-13T19:45:34.486Z,2.87
2023-05-13T19:48:01.053Z,3.17
2023-05-13T19:50:27.573Z,3.17
2023-05-13T19:52:54.168Z,2.93
2023-05-13T19:55:20.747Z,3.10
2023-05-13T19:57:47.828Z,2.70
2023-05-13T20:00:15.204Z,3.33
2023-05-13T20:02:41.819Z,3.30
2023-05-13T20:05:08.727Z,3.47
2023-05-13T20:07:35.317Z,3.33
2023-05-13T20:10:01.795Z,3.93
2023-05-13T20:12:28.348Z,4.60
2023-05-13T20:14:58.886Z,3.77
2023-05-13T20:17:25.660Z,4.30
2023-05-13T20:19:57.084Z,5.73
2023-05-13T20:22:23.621Z,6.00
2023-05-13T20:24:50.704Z,5.50
2023-05-13T20:27:17.763Z,5.50
2023-05-13T20:29:45.539Z,3.30
2023-05-13T20:32:12.123Z,2.77
2023-05-13T20:34:38.628Z,2.50
2023-05-13T20:37:05.852Z,2.20
2023-05-13T20:39:32.536Z,2.40
2023-05-13T20:41:58.977Z,2.33
2023-05-13T20:44:25.551Z,2.20
2023-05-13T20:46:52.492Z,2.30
2023-05-13T20:49:19.016Z,2.47
2023-05-13T20:51:47.508Z,2.07
2023-05-13T20:54:14.775Z,2.40
2023-05-13T20:56:41.546Z,2.40
2023-05-13T20:59:08.089Z,2.10
2023-05-13T21:01:35.717Z,2.83
2023-05-13T21:04:04.101Z,2.00
2023-05-13T21:06:30.670Z,2.37
2023-05-13T21:08:57.202Z,2.10
2023-05-13T21:11:23.657Z,2.17
2023-05-13T21:13:50.088Z,1.97
2023-05-13T21:16:16.525Z,2.37
2023-05-13T21:18:43.114Z,1.90
2023-05-13T21:21:12.506Z,2.07
2023-05-13T21:23:40.191Z,4.07
2023-05-13T21:26:07.036Z,1.73
2023-05-13T21:28:33.519Z,2.13
2023-05-13T21:30:59.963Z,2.53
2023-05-13T21:33:26.729Z,1.93
2023-05-13T21:35:53.303Z,2.13
2023-05-13T21:38:19.793Z,2.00
2023-05-13T21:40:46.289Z,2.30
2023-05-13T21:43:12.748Z,3.00
2023-05-13T21:45:39.943Z,3.70
2023-05-13T21:48:06.781Z,2.00
2023-05-13T21:50:33.785Z,2.70
2023-05-13T21:53:00.369Z,3.17
2023-05-13T21:55:26.810Z,3.50
2023-05-13T21:57:53.334Z,3.40
2023-05-13T22:00:21.809Z,3.20
2023-05-13T22:02:50.281Z,3.60
2023-05-13T22:05:16.944Z,3.23
2023-05-13T22:07:43.636Z,2.90
2023-05-13T22:10:10.397Z,2.80
2023-05-13T22:12:36.984Z,2.57
2023-05-13T22:15:03.612Z,2.80
2023-05-13T22:17:30.140Z,2.47
2023-05-13T22:19:56.909Z,2.47
2023-05-13T22:22:23.372Z,2.50
2023-05-13T22:24:50.446Z,2.70
2023-05-13T22:27:16.957Z,2.67
2023-05-13T22:29:43.432Z,2.60
2023-05-13T22:32:10.080Z,2.40
2023-05-13T22:34:36.768Z,2.20
2023-05-13T22:37:03.336Z,2.43
2023-05-13T22:39:29.738Z,2.10
2023-05-13T22:41:56.323Z,2.13
2023-05-13T22:44:25.483Z,2.30
2023-05-13T22:46:53.432Z,2.37
2023-05-13T22:49:20.170Z,2.60
2023-05-13T22:51:47.922Z,2.20
2023-05-13T22:54:14.549Z,2.57
2023-05-13T22:56:41.488Z,2.93
2023-05-13T22:59:07.959Z,2.40
2023-05-13T23:01:34.545Z,2.47
2023-05-13T23:04:01.262Z,2.40
2023-05-13T23:06:27.771Z,2.43
2023-05-13T23:08:54.215Z,2.63
2023-05-13T23:11:21.430Z,2.33
2023-05-13T23:13:47.899Z,2.43
2023-05-13T23:16:14.469Z,2.73
2023-05-13T23:18:41.056Z,2.60
2023-05-13T23:21:09.138Z,2.70
2023-05-13T23:23:36.021Z,3.20
2023-05-13T23:26:04.281Z,2.57
2023-05-13T23:28:30.706Z,2.80
2023-05-13T23:30:57.194Z,3.20
2023-05-13T23:33:23.672Z,2.80
2023-05-13T23:35:53.804Z,3.00
2023-05-13T23:38:20.541Z,2.70
2023-05-13T23:40:46.967Z,2.60
2023-05-13T23:43:13.408Z,2.60
2023-05-13T23:45:39.982Z,2.37
2023-05-13T23:48:06.622Z,2.40
2023-05-13T23:50:33.133Z,2.50
2023-05-13T23:52:59.609Z,2.33
2023-05-13T23:55:26.187Z,2.47
2023-05-13T23:57:52.660Z,2.20
